sensor_id;sensor_type;location;lat;lon;timestamp;P1;durP1;ratioP1;P2;durP2;ratioP2
45326;SDS011;31062;49.678;24.560;2023-03-23T00:02:28;31.23;;;16.85;;
45326;SDS011;31062;49.678;24.560;2023-03-23T00:05:19;29.67;;;17.15;;
45326;SDS011;31062;49.678;24.560;2023-03-23T00:08:04;30.05;;;16.67;;
45326;SDS011;31062;49.678;24.560;2023-03-23T00:10:49;39.55;;;17.58;;
45326;SDS011;31062;49.678;24.560;2023-03-23T00:13:36;34.00;;;17.48;;
45326;SDS011;31062;49.678;24.560;2023-03-23T00:16:22;34.03;;;17.40;;
45326;SDS011;31062;49.678;24.560;2023-03-23T00:19:16;37.95;;;18.25;;
45326;SDS011;31062;49.678;24.560;2023-03-23T00:22:03;38.20;;;17.05;;
45326;SDS011;31062;49.678;24.560;2023-03-23T00:24:47;34.78;;;18.75;;
45326;SDS011;31062;49.678;24.560;2023-03-23T00:27:35;33.42;;;17.20;;
45326;SDS011;31062;49.678;24.560;2023-03-23T00:30:19;32.08;;;16.55;;
45326;SDS011;31062;49.678;24.560;2023-03-23T00:33:04;28.10;;;15.60;;
45326;SDS011;31062;49.678;24.560;2023-03-23T00:35:49;30.77;;;16.23;;
45326;SDS011;31062;49.678;24.560;2023-03-23T00:38:37;24.17;;;14.30;;
45326;SDS011;31062;49.678;24.560;2023-03-23T00:41:22;22.80;;;15.07;;
45326;SDS011;31062;49.678;24.560;2023-03-23T00:44:07;23.85;;;14.65;;
45326;SDS011;31062;49.678;24.560;2023-03-23T00:46:52;23.13;;;14.73;;
45326;SDS011;31062;49.678;24.560;2023-03-23T00:49:39;26.00;;;14.35;;
45326;SDS011;31062;49.678;24.560;2023-03-23T00:52:24;22.42;;;14.55;;
45326;SDS011;31062;49.678;24.560;2023-03-23T00:55:09;26.70;;;14.77;;
45326;SDS011;31062;49.678;24.560;2023-03-23T00:57:54;20.60;;;13.50;;
45326;SDS011;31062;49.678;24.560;2023-03-23T01:00:41;23.10;;;13.90;;
45326;SDS011;31062;49.678;24.560;2023-03-23T01:03:26;23.80;;;14.60;;
45326;SDS011;31062;49.678;24.560;2023-03-23T01:06:12;21.80;;;14.07;;
45326;SDS011;31062;49.678;24.560;2023-03-23T01:09:02;27.33;;;14.23;;
45326;SDS011;31062;49.678;24.560;2023-03-23T01:11:47;29.33;;;16.33;;
45326;SDS011;31062;49.678;24.560;2023-03-23T01:14:33;26.35;;;14.18;;
45326;SDS011;31062;49.678;24.560;2023-03-23T01:17:17;29.42;;;15.23;;
45326;SDS011;31062;49.678;24.560;2023-03-23T01:20:03;30.05;;;15.57;;
45326;SDS011;31062;49.678;24.560;2023-03-23T01:22:50;27.23;;;14.88;;
45326;SDS011;31062;49.678;24.560;2023-03-23T01:25:35;27.30;;;15.13;;
45326;SDS011;31062;49.678;24.560;2023-03-23T01:28:21;25.25;;;14.43;;
45326;SDS011;31062;49.678;24.560;2023-03-23T01:31:06;31.30;;;15.48;;
45326;SDS011;31062;49.678;24.560;2023-03-23T01:33:54;26.30;;;14.35;;
45326;SDS011;31062;49.678;24.560;2023-03-23T01:36:40;25.58;;;15.10;;
45326;SDS011;31062;49.678;24.560;2023-03-23T01:39:25;27.88;;;14.43;;
45326;SDS011;31062;49.678;24.560;2023-03-23T01:42:09;29.08;;;15.70;;
45326;SDS011;31062;49.678;24.560;2023-03-23T01:47:39;30.48;;;17.30;;
45326;SDS011;31062;49.678;24.560;2023-03-23T01:50:24;34.17;;;16.52;;
45326;SDS011;31062;49.678;24.560;2023-03-23T01:53:11;28.90;;;16.02;;
45326;SDS011;31062;49.678;24.560;2023-03-23T01:55:57;22.73;;;14.75;;
45326;SDS011;31062;49.678;24.560;2023-03-23T01:58:44;25.25;;;15.13;;
45326;SDS011;31062;49.678;24.560;2023-03-23T02:01:29;25.60;;;14.73;;
45326;SDS011;31062;49.678;24.560;2023-03-23T02:04:15;26.90;;;14.52;;
45326;SDS011;31062;49.678;24.560;2023-03-23T02:07:01;26.67;;;15.43;;
45326;SDS011;31062;49.678;24.560;2023-03-23T02:09:49;31.63;;;16.08;;
45326;SDS011;31062;49.678;24.560;2023-03-23T02:12:34;26.30;;;16.13;;
45326;SDS011;31062;49.678;24.560;2023-03-23T02:15:20;27.52;;;16.40;;
45326;SDS011;31062;49.678;24.560;2023-03-23T02:18:08;28.42;;;16.05;;
45326;SDS011;31062;49.678;24.560;2023-03-23T02:21:13;29.00;;;16.15;;
45326;SDS011;31062;49.678;24.560;2023-03-23T02:27:50;27.92;;;15.63;;
45326;SDS011;31062;49.678;24.560;2023-03-23T02:37:17;27.95;;;15.07;;
45326;SDS011;31062;49.678;24.560;2023-03-23T02:40:27;29.10;;;15.65;;
45326;SDS011;31062;49.678;24.560;2023-03-23T02:43:14;26.27;;;15.90;;
45326;SDS011;31062;49.678;24.560;2023-03-23T02:46:01;31.98;;;16.23;;
45326;SDS011;31062;49.678;24.560;2023-03-23T02:48:50;25.48;;;14.70;;
45326;SDS011;31062;49.678;24.560;2023-03-23T02:51:38;30.00;;;14.45;;
45326;SDS011;31062;49.678;24.560;2023-03-23T02:54:24;27.25;;;15.82;;
45326;SDS011;31062;49.678;24.560;2023-03-23T02:57:10;29.10;;;16.33;;
45326;SDS011;31062;49.678;24.560;2023-03-23T02:59:58;27.58;;;15.43;;
45326;SDS011;31062;49.678;24.560;2023-03-23T03:02:44;28.98;;;15.07;;
45326;SDS011;31062;49.678;24.560;2023-03-23T03:08:55;26.48;;;15.60;;
45326;SDS011;31062;49.678;24.560;2023-03-23T03:11:48;27.17;;;15.23;;
45326;SDS011;31062;49.678;24.560;2023-03-23T03:14:41;25.27;;;14.40;;
45326;SDS011;31062;49.678;24.560;2023-03-23T03:17:34;22.75;;;14.13;;
45326;SDS011;31062;49.678;24.560;2023-03-23T03:20:24;29.88;;;15.63;;
45326;SDS011;31062;49.678;24.560;2023-03-23T03:23:12;30.90;;;14.70;;
45326;SDS011;31062;49.678;24.560;2023-03-23T03:26:02;25.08;;;15.23;;
45326;SDS011;31062;49.678;24.560;2023-03-23T03:29:02;24.15;;;13.73;;
45326;SDS011;31062;49.678;24.560;2023-03-23T03:31:53;23.25;;;13.27;;
45326;SDS011;31062;49.678;24.560;2023-03-23T03:34:43;24.52;;;15.05;;
45326;SDS011;31062;49.678;24.560;2023-03-23T03:37:35;24.98;;;14.70;;
45326;SDS011;31062;49.678;24.560;2023-03-23T03:40:22;28.50;;;14.98;;
45326;SDS011;31062;49.678;24.560;2023-03-23T03:43:08;26.40;;;15.05;;
45326;SDS011;31062;49.678;24.560;2023-03-23T03:45:53;27.77;;;15.70;;
45326;SDS011;31062;49.678;24.560;2023-03-23T03:48:40;26.00;;;14.40;;
45326;SDS011;31062;49.678;24.560;2023-03-23T03:51:25;24.27;;;14.52;;
45326;SDS011;31062;49.678;24.560;2023-03-23T03:54:12;26.00;;;13.55;;
45326;SDS011;31062;49.678;24.560;2023-03-23T03:56:57;24.23;;;14.40;;
45326;SDS011;31062;49.678;24.560;2023-03-23T04:00:02;25.63;;;14.05;;
45326;SDS011;31062;49.678;24.560;2023-03-23T04:03:07;18.90;;;13.07;;
45326;SDS011;31062;49.678;24.560;2023-03-23T04:06:13;19.60;;;12.90;;
45326;SDS011;31062;49.678;24.560;2023-03-23T04:08:57;23.60;;;12.82;;
45326;SDS011;31062;49.678;24.560;2023-03-23T04:11:45;23.92;;;14.30;;
45326;SDS011;31062;49.678;24.560;2023-03-23T04:14:48;26.48;;;14.13;;
45326;SDS011;31062;49.678;24.560;2023-03-23T04:17:34;25.17;;;14.25;;
45326;SDS011;31062;49.678;24.560;2023-03-23T04:20:21;25.15;;;14.45;;
45326;SDS011;31062;49.678;24.560;2023-03-23T04:23:08;21.98;;;13.85;;
45326;SDS011;31062;49.678;24.560;2023-03-23T04:25:52;22.35;;;14.20;;
45326;SDS011;31062;49.678;24.560;2023-03-23T04:28:45;23.13;;;13.70;;
45326;SDS011;31062;49.678;24.560;2023-03-23T04:31:48;25.25;;;13.90;;
45326;SDS011;31062;49.678;24.560;2023-03-23T04:34:47;18.58;;;12.35;;
45326;SDS011;31062;49.678;24.560;2023-03-23T04:37:34;20.45;;;12.60;;
45326;SDS011;31062;49.678;24.560;2023-03-23T04:40:21;26.30;;;14.15;;
45326;SDS011;31062;49.678;24.560;2023-03-23T04:43:21;21.83;;;12.48;;
45326;SDS011;31062;49.678;24.560;2023-03-23T04:46:31;22.42;;;13.80;;
45326;SDS011;31062;49.678;24.560;2023-03-23T04:52:15;23.85;;;14.07;;
45326;SDS011;31062;49.678;24.560;2023-03-23T04:55:06;26.10;;;15.82;;
45326;SDS011;31062;49.678;24.560;2023-03-23T04:57:53;22.10;;;13.95;;
45326;SDS011;31062;49.678;24.560;2023-03-23T05:01:04;25.30;;;15.13;;
45326;SDS011;31062;49.678;24.560;2023-03-23T05:03:54;24.15;;;15.40;;
45326;SDS011;31062;49.678;24.560;2023-03-23T05:06:39;35.33;;;19.42;;
45326;SDS011;31062;49.678;24.560;2023-03-23T05:09:31;39.20;;;19.88;;
45326;SDS011;31062;49.678;24.560;2023-03-23T05:12:16;36.95;;;19.40;;
45326;SDS011;31062;49.678;24.560;2023-03-23T05:15:12;28.20;;;16.63;;
45326;SDS011;31062;49.678;24.560;2023-03-23T05:18:00;24.95;;;15.30;;
45326;SDS011;31062;49.678;24.560;2023-03-23T05:20:44;34.58;;;14.80;;
45326;SDS011;31062;49.678;24.560;2023-03-23T05:23:37;31.40;;;15.55;;
45326;SDS011;31062;49.678;24.560;2023-03-23T05:26:33;41.97;;;17.45;;
45326;SDS011;31062;49.678;24.560;2023-03-23T05:29:24;40.90;;;19.75;;
45326;SDS011;31062;49.678;24.560;2023-03-23T05:32:15;41.97;;;18.65;;
45326;SDS011;31062;49.678;24.560;2023-03-23T05:35:02;34.53;;;17.20;;
45326;SDS011;31062;49.678;24.560;2023-03-23T05:37:49;45.15;;;19.17;;
45326;SDS011;31062;49.678;24.560;2023-03-23T05:40:34;43.28;;;21.05;;
45326;SDS011;31062;49.678;24.560;2023-03-23T05:43:29;61.72;;;29.30;;
45326;SDS011;31062;49.678;24.560;2023-03-23T05:46:27;67.40;;;32.92;;
45326;SDS011;31062;49.678;24.560;2023-03-23T05:49:15;38.53;;;19.77;;
45326;SDS011;31062;49.678;24.560;2023-03-23T05:52:01;34.40;;;18.15;;
45326;SDS011;31062;49.678;24.560;2023-03-23T05:54:46;27.63;;;14.73;;
45326;SDS011;31062;49.678;24.560;2023-03-23T05:57:31;31.70;;;13.95;;
45326;SDS011;31062;49.678;24.560;2023-03-23T06:00:25;22.77;;;12.57;;
45326;SDS011;31062;49.678;24.560;2023-03-23T06:03:22;29.67;;;14.20;;
45326;SDS011;31062;49.678;24.560;2023-03-23T06:06:22;22.75;;;13.30;;
45326;SDS011;31062;49.678;24.560;2023-03-23T06:09:26;20.00;;;11.77;;
45326;SDS011;31062;49.678;24.560;2023-03-23T06:12:24;22.30;;;11.95;;
45326;SDS011;31062;49.678;24.560;2023-03-23T06:15:23;20.30;;;10.45;;
45326;SDS011;31062;49.678;24.560;2023-03-23T06:18:35;26.33;;;12.50;;
45326;SDS011;31062;49.678;24.560;2023-03-23T06:21:26;17.88;;;11.70;;
45326;SDS011;31062;49.678;24.560;2023-03-23T06:24:17;18.55;;;11.10;;
45326;SDS011;31062;49.678;24.560;2023-03-23T06:27:02;16.52;;;10.10;;
45326;SDS011;31062;49.678;24.560;2023-03-23T06:29:47;16.20;;;10.80;;
45326;SDS011;31062;49.678;24.560;2023-03-23T06:32:33;12.48;;;9.15;;
45326;SDS011;31062;49.678;24.560;2023-03-23T06:35:19;12.65;;;8.43;;
45326;SDS011;31062;49.678;24.560;2023-03-23T06:38:10;12.90;;;8.88;;
45326;SDS011;31062;49.678;24.560;2023-03-23T06:41:03;14.98;;;8.07;;
45326;SDS011;31062;49.678;24.560;2023-03-23T06:43:48;13.73;;;8.55;;
45326;SDS011;31062;49.678;24.560;2023-03-23T06:46:40;12.48;;;7.60;;
45326;SDS011;31062;49.678;24.560;2023-03-23T06:49:42;12.80;;;7.60;;
45326;SDS011;31062;49.678;24.560;2023-03-23T06:52:36;11.55;;;7.82;;
45326;SDS011;31062;49.678;24.560;2023-03-23T06:55:21;15.52;;;7.63;;
45326;SDS011;31062;49.678;24.560;2023-03-23T06:58:05;10.95;;;7.43;;
45326;SDS011;31062;49.678;24.560;2023-03-23T07:00:54;11.63;;;7.45;;
45326;SDS011;31062;49.678;24.560;2023-03-23T07:03:46;14.15;;;7.18;;
45326;SDS011;31062;49.678;24.560;2023-03-23T07:06:35;9.52;;;6.50;;
45326;SDS011;31062;49.678;24.560;2023-03-23T07:09:24;10.57;;;7.53;;
45326;SDS011;31062;49.678;24.560;2023-03-23T07:12:09;11.38;;;6.22;;
45326;SDS011;31062;49.678;24.560;2023-03-23T07:15:00;10.50;;;6.65;;
45326;SDS011;31062;49.678;24.560;2023-03-23T07:17:45;12.27;;;7.13;;
45326;SDS011;31062;49.678;24.560;2023-03-23T07:20:48;12.38;;;7.60;;
45326;SDS011;31062;49.678;24.560;2023-03-23T07:23:34;10.57;;;7.13;;
45326;SDS011;31062;49.678;24.560;2023-03-23T07:26:22;12.25;;;7.03;;
45326;SDS011;31062;49.678;24.560;2023-03-23T07:29:11;17.67;;;7.30;;
45326;SDS011;31062;49.678;24.560;2023-03-23T07:32:01;7.25;;;5.38;;
45326;SDS011;31062;49.678;24.560;2023-03-23T07:34:47;7.18;;;5.18;;
45326;SDS011;31062;49.678;24.560;2023-03-23T07:37:40;8.30;;;4.85;;
45326;SDS011;31062;49.678;24.560;2023-03-23T07:40:25;6.50;;;5.15;;
45326;SDS011;31062;49.678;24.560;2023-03-23T07:43:15;7.57;;;5.80;;
45326;SDS011;31062;49.678;24.560;2023-03-23T07:46:18;8.13;;;5.07;;
45326;SDS011;31062;49.678;24.560;2023-03-23T07:49:18;7.50;;;4.90;;
45326;SDS011;31062;49.678;24.560;2023-03-23T07:52:16;5.82;;;4.68;;
45326;SDS011;31062;49.678;24.560;2023-03-23T07:55:03;5.78;;;3.92;;
45326;SDS011;31062;49.678;24.560;2023-03-23T07:58:06;5.82;;;4.28;;
45326;SDS011;31062;49.678;24.560;2023-03-23T08:00:53;5.43;;;4.13;;
45326;SDS011;31062;49.678;24.560;2023-03-23T08:03:40;5.85;;;3.85;;
45326;SDS011;31062;49.678;24.560;2023-03-23T08:06:54;8.00;;;4.30;;
45326;SDS011;31062;49.678;24.560;2023-03-23T08:09:55;5.23;;;4.50;;
45326;SDS011;31062;49.678;24.560;2023-03-23T08:16:05;15.75;;;4.80;;
45326;SDS011;31062;49.678;24.560;2023-03-23T08:19:08;6.45;;;3.35;;
45326;SDS011;31062;49.678;24.560;2023-03-23T08:22:04;5.20;;;4.15;;
45326;SDS011;31062;49.678;24.560;2023-03-23T08:24:52;5.18;;;3.50;;
45326;SDS011;31062;49.678;24.560;2023-03-23T08:28:03;4.63;;;3.72;;
45326;SDS011;31062;49.678;24.560;2023-03-23T08:31:06;5.60;;;3.58;;
45326;SDS011;31062;49.678;24.560;2023-03-23T08:34:12;6.28;;;4.70;;
45326;SDS011;31062;49.678;24.560;2023-03-23T08:37:15;5.53;;;3.97;;
45326;SDS011;31062;49.678;24.560;2023-03-23T08:40:20;8.50;;;4.03;;
45326;SDS011;31062;49.678;24.560;2023-03-23T08:43:15;4.63;;;3.67;;
45326;SDS011;31062;49.678;24.560;2023-03-23T08:46:25;6.65;;;3.60;;
45326;SDS011;31062;49.678;24.560;2023-03-23T08:49:38;7.97;;;4.28;;
45326;SDS011;31062;49.678;24.560;2023-03-23T08:52:46;4.57;;;3.78;;
45326;SDS011;31062;49.678;24.560;2023-03-23T08:56:07;5.75;;;3.83;;
45326;SDS011;31062;49.678;24.560;2023-03-23T08:59:12;4.63;;;3.45;;
45326;SDS011;31062;49.678;24.560;2023-03-23T09:02:11;5.70;;;4.00;;
45326;SDS011;31062;49.678;24.560;2023-03-23T09:05:24;4.32;;;3.92;;
45326;SDS011;31062;49.678;24.560;2023-03-23T09:08:45;3.30;;;3.00;;
45326;SDS011;31062;49.678;24.560;2023-03-23T09:11:30;4.40;;;3.30;;
45326;SDS011;31062;49.678;24.560;2023-03-23T09:14:16;3.75;;;3.35;;
45326;SDS011;31062;49.678;24.560;2023-03-23T09:17:01;5.78;;;4.45;;
45326;SDS011;31062;49.678;24.560;2023-03-23T09:19:47;5.00;;;3.35;;
45326;SDS011;31062;49.678;24.560;2023-03-23T09:22:32;5.60;;;3.75;;
45326;SDS011;31062;49.678;24.560;2023-03-23T09:25:18;5.63;;;5.03;;
45326;SDS011;31062;49.678;24.560;2023-03-23T09:28:05;3.90;;;3.45;;
45326;SDS011;31062;49.678;24.560;2023-03-23T09:30:50;4.97;;;4.47;;
45326;SDS011;31062;49.678;24.560;2023-03-23T09:33:39;16.20;;;8.68;;
45326;SDS011;31062;49.678;24.560;2023-03-23T09:36:24;9.50;;;5.45;;
45326;SDS011;31062;49.678;24.560;2023-03-23T09:39:14;8.88;;;4.90;;
45326;SDS011;31062;49.678;24.560;2023-03-23T09:48:38;5.60;;;3.55;;
45326;SDS011;31062;49.678;24.560;2023-03-23T09:54:27;5.38;;;4.10;;
45326;SDS011;31062;49.678;24.560;2023-03-23T09:57:25;3.80;;;3.42;;
45326;SDS011;31062;49.678;24.560;2023-03-23T10:03:02;4.22;;;3.40;;
45326;SDS011;31062;49.678;24.560;2023-03-23T10:05:50;4.60;;;3.30;;
45326;SDS011;31062;49.678;24.560;2023-03-23T10:08:36;4.93;;;4.53;;
45326;SDS011;31062;49.678;24.560;2023-03-23T10:18:02;4.85;;;3.60;;
45326;SDS011;31062;49.678;24.560;2023-03-23T10:21:01;3.92;;;3.25;;
45326;SDS011;31062;49.678;24.560;2023-03-23T10:30:07;4.55;;;2.63;;
45326;SDS011;31062;49.678;24.560;2023-03-23T10:32:58;4.18;;;3.42;;
45326;SDS011;31062;49.678;24.560;2023-03-23T10:36:05;4.40;;;2.78;;
45326;SDS011;31062;49.678;24.560;2023-03-23T10:39:05;3.72;;;3.30;;
45326;SDS011;31062;49.678;24.560;2023-03-23T10:41:55;4.18;;;3.72;;
45326;SDS011;31062;49.678;24.560;2023-03-23T10:44:41;5.80;;;3.33;;
45326;SDS011;31062;49.678;24.560;2023-03-23T10:47:27;5.38;;;2.80;;
45326;SDS011;31062;49.678;24.560;2023-03-23T10:50:14;5.15;;;2.88;;
45326;SDS011;31062;49.678;24.560;2023-03-23T10:53:01;4.28;;;2.00;;
45326;SDS011;31062;49.678;24.560;2023-03-23T10:56:00;4.38;;;1.95;;
45326;SDS011;31062;49.678;24.560;2023-03-23T10:58:46;2.03;;;1.83;;
45326;SDS011;31062;49.678;24.560;2023-03-23T11:01:31;2.75;;;1.77;;
45326;SDS011;31062;49.678;24.560;2023-03-23T11:04:18;2.83;;;2.40;;
45326;SDS011;31062;49.678;24.560;2023-03-23T11:07:03;3.22;;;2.85;;
45326;SDS011;31062;49.678;24.560;2023-03-23T11:09:53;4.15;;;3.63;;
45326;SDS011;31062;49.678;24.560;2023-03-23T11:12:43;5.40;;;3.22;;
45326;SDS011;31062;49.678;24.560;2023-03-23T11:15:35;3.08;;;2.80;;
45326;SDS011;31062;49.678;24.560;2023-03-23T11:18:34;3.67;;;2.80;;
45326;SDS011;31062;49.678;24.560;2023-03-23T11:21:27;2.42;;;2.20;;
45326;SDS011;31062;49.678;24.560;2023-03-23T11:24:12;2.58;;;2.10;;
45326;SDS011;31062;49.678;24.560;2023-03-23T11:26:57;6.18;;;4.07;;
45326;SDS011;31062;49.678;24.560;2023-03-23T11:30:01;2.80;;;2.60;;
45326;SDS011;31062;49.678;24.560;2023-03-23T11:32:59;5.32;;;2.95;;
45326;SDS011;31062;49.678;24.560;2023-03-23T11:35:45;4.63;;;2.78;;
45326;SDS011;31062;49.678;24.560;2023-03-23T11:38:31;3.58;;;2.80;;
45326;SDS011;31062;49.678;24.560;2023-03-23T11:41:18;4.07;;;3.08;;
45326;SDS011;31062;49.678;24.560;2023-03-23T11:44:08;8.82;;;4.55;;
45326;SDS011;31062;49.678;24.560;2023-03-23T11:58:58;6.28;;;3.30;;
45326;SDS011;31062;49.678;24.560;2023-03-23T12:32:26;6.07;;;3.03;;
45326;SDS011;31062;49.678;24.560;2023-03-23T12:35:25;5.57;;;2.83;;
45326;SDS011;31062;49.678;24.560;2023-03-23T12:38:58;3.00;;;2.63;;
45326;SDS011;31062;49.678;24.560;2023-03-23T12:48:07;3.92;;;3.28;;
45326;SDS011;31062;49.678;24.560;2023-03-23T12:51:06;5.80;;;4.43;;
45326;SDS011;31062;49.678;24.560;2023-03-23T13:03:09;3.45;;;3.10;;
45326;SDS011;31062;49.678;24.560;2023-03-23T13:06:05;6.38;;;2.88;;
45326;SDS011;31062;49.678;24.560;2023-03-23T13:12:12;4.93;;;2.97;;
45326;SDS011;31062;49.678;24.560;2023-03-23T13:24:49;4.95;;;3.42;;
45326;SDS011;31062;49.678;24.560;2023-03-23T13:27:39;4.82;;;2.80;;
45326;SDS011;31062;49.678;24.560;2023-03-23T13:30:27;9.30;;;3.05;;
45326;SDS011;31062;49.678;24.560;2023-03-23T13:33:12;4.10;;;3.10;;
45326;SDS011;31062;49.678;24.560;2023-03-23T13:36:01;7.07;;;3.30;;
45326;SDS011;31062;49.678;24.560;2023-03-23T13:38:51;4.13;;;3.05;;
45326;SDS011;31062;49.678;24.560;2023-03-23T13:41:45;5.18;;;3.55;;
45326;SDS011;31062;49.678;24.560;2023-03-23T13:44:44;5.03;;;2.72;;
45326;SDS011;31062;49.678;24.560;2023-03-23T13:47:40;2.72;;;2.13;;
45326;SDS011;31062;49.678;24.560;2023-03-23T13:50:27;6.28;;;2.85;;
45326;SDS011;31062;49.678;24.560;2023-03-23T13:53:15;2.72;;;2.40;;
45326;SDS011;31062;49.678;24.560;2023-03-23T13:56:21;3.78;;;3.05;;
45326;SDS011;31062;49.678;24.560;2023-03-23T14:00:11;4.97;;;3.78;;
45326;SDS011;31062;49.678;24.560;2023-03-23T14:08:41;10.02;;;6.30;;
45326;SDS011;31062;49.678;24.560;2023-03-23T14:11:28;5.35;;;4.75;;
45326;SDS011;31062;49.678;24.560;2023-03-23T14:14:21;7.13;;;5.55;;
45326;SDS011;31062;49.678;24.560;2023-03-23T14:17:15;6.32;;;4.50;;
45326;SDS011;31062;49.678;24.560;2023-03-23T14:20:04;4.97;;;3.97;;
45326;SDS011;31062;49.678;24.560;2023-03-23T14:22:54;8.10;;;4.57;;
45326;SDS011;31062;49.678;24.560;2023-03-23T14:25:40;6.22;;;4.65;;
45326;SDS011;31062;49.678;24.560;2023-03-23T14:28:27;7.32;;;5.18;;
45326;SDS011;31062;49.678;24.560;2023-03-23T14:31:15;5.70;;;3.97;;
45326;SDS011;31062;49.678;24.560;2023-03-23T14:34:05;4.68;;;3.58;;
45326;SDS011;31062;49.678;24.560;2023-03-23T14:37:09;4.90;;;3.15;;
45326;SDS011;31062;49.678;24.560;2023-03-23T14:39:57;8.15;;;3.35;;
45326;SDS011;31062;49.678;24.560;2023-03-23T14:42:43;7.70;;;3.25;;
45326;SDS011;31062;49.678;24.560;2023-03-23T14:45:29;7.85;;;3.45;;
45326;SDS011;31062;49.678;24.560;2023-03-23T14:48:15;5.95;;;2.97;;
45326;SDS011;31062;49.678;24.560;2023-03-23T14:51:02;5.47;;;3.80;;
45326;SDS011;31062;49.678;24.560;2023-03-23T14:53:48;8.20;;;5.57;;
45326;SDS011;31062;49.678;24.560;2023-03-23T14:56:36;10.70;;;6.38;;
45326;SDS011;31062;49.678;24.560;2023-03-23T14:59:21;7.03;;;5.40;;
45326;SDS011;31062;49.678;24.560;2023-03-23T15:02:05;8.40;;;5.50;;
45326;SDS011;31062;49.678;24.560;2023-03-23T15:04:57;7.20;;;4.40;;
45326;SDS011;31062;49.678;24.560;2023-03-23T15:07:46;6.13;;;4.75;;
45326;SDS011;31062;49.678;24.560;2023-03-23T15:10:33;11.60;;;4.70;;
45326;SDS011;31062;49.678;24.560;2023-03-23T15:13:18;4.40;;;3.95;;
45326;SDS011;31062;49.678;24.560;2023-03-23T15:16:45;8.43;;;4.28;;
45326;SDS011;31062;49.678;24.560;2023-03-23T15:19:26;8.15;;;3.78;;
45326;SDS011;31062;49.678;24.560;2023-03-23T15:25:12;12.30;;;4.95;;
45326;SDS011;31062;49.678;24.560;2023-03-23T15:30:54;5.90;;;3.83;;
45326;SDS011;31062;49.678;24.560;2023-03-23T15:33:42;4.88;;;4.22;;
45326;SDS011;31062;49.678;24.560;2023-03-23T15:36:30;6.03;;;4.60;;
45326;SDS011;31062;49.678;24.560;2023-03-23T15:39:16;6.70;;;3.97;;
45326;SDS011;31062;49.678;24.560;2023-03-23T15:42:01;4.20;;;3.55;;
45326;SDS011;31062;49.678;24.560;2023-03-23T15:44:55;5.82;;;3.33;;
45326;SDS011;31062;49.678;24.560;2023-03-23T15:47:48;7.10;;;4.15;;
45326;SDS011;31062;49.678;24.560;2023-03-23T15:50:34;4.18;;;2.95;;
45326;SDS011;31062;49.678;24.560;2023-03-23T15:53:25;9.23;;;2.55;;
45326;SDS011;31062;49.678;24.560;2023-03-23T15:56:13;3.55;;;2.72;;
45326;SDS011;31062;49.678;24.560;2023-03-23T15:58:59;7.82;;;4.93;;
45326;SDS011;31062;49.678;24.560;2023-03-23T16:01:45;7.93;;;5.45;;
45326;SDS011;31062;49.678;24.560;2023-03-23T16:04:32;8.52;;;5.63;;
45326;SDS011;31062;49.678;24.560;2023-03-23T16:07:19;124.22;;;60.03;;
45326;SDS011;31062;49.678;24.560;2023-03-23T16:10:10;75.20;;;42.45;;
45326;SDS011;31062;49.678;24.560;2023-03-23T16:13:01;47.65;;;27.80;;
45326;SDS011;31062;49.678;24.560;2023-03-23T16:15:49;22.52;;;14.90;;
45326;SDS011;31062;49.678;24.560;2023-03-23T16:18:35;29.48;;;15.02;;
45326;SDS011;31062;49.678;24.560;2023-03-23T16:21:21;25.08;;;13.50;;
45326;SDS011;31062;49.678;24.560;2023-03-23T16:24:07;14.73;;;9.25;;
45326;SDS011;31062;49.678;24.560;2023-03-23T16:26:54;19.80;;;12.10;;
45326;SDS011;31062;49.678;24.560;2023-03-23T16:29:40;16.40;;;9.82;;
45326;SDS011;31062;49.678;24.560;2023-03-23T16:32:31;18.25;;;11.60;;
45326;SDS011;31062;49.678;24.560;2023-03-23T16:35:15;19.05;;;11.20;;
45326;SDS011;31062;49.678;24.560;2023-03-23T16:38:02;18.02;;;9.32;;
45326;SDS011;31062;49.678;24.560;2023-03-23T16:40:53;15.13;;;10.27;;
45326;SDS011;31062;49.678;24.560;2023-03-23T16:43:38;16.00;;;9.32;;
45326;SDS011;31062;49.678;24.560;2023-03-23T16:46:24;14.18;;;7.95;;
45326;SDS011;31062;49.678;24.560;2023-03-23T16:49:09;18.73;;;7.90;;
45326;SDS011;31062;49.678;24.560;2023-03-23T16:51:56;14.05;;;7.25;;
45326;SDS011;31062;49.678;24.560;2023-03-23T16:54:43;10.05;;;6.80;;
45326;SDS011;31062;49.678;24.560;2023-03-23T16:57:28;9.85;;;5.97;;
45326;SDS011;31062;49.678;24.560;2023-03-23T17:00:16;9.02;;;5.53;;
45326;SDS011;31062;49.678;24.560;2023-03-23T17:03:04;35.13;;;15.20;;
45326;SDS011;31062;49.678;24.560;2023-03-23T17:05:50;15.73;;;7.97;;
45326;SDS011;31062;49.678;24.560;2023-03-23T17:08:36;7.55;;;6.15;;
45326;SDS011;31062;49.678;24.560;2023-03-23T17:11:21;12.55;;;7.82;;
45326;SDS011;31062;49.678;24.560;2023-03-23T17:14:07;12.15;;;7.55;;
45326;SDS011;31062;49.678;24.560;2023-03-23T17:16:52;15.93;;;10.23;;
45326;SDS011;31062;49.678;24.560;2023-03-23T17:19:38;26.05;;;15.32;;
45326;SDS011;31062;49.678;24.560;2023-03-23T17:22:23;38.60;;;20.33;;
45326;SDS011;31062;49.678;24.560;2023-03-23T17:25:09;48.33;;;26.15;;
45326;SDS011;31062;49.678;24.560;2023-03-23T17:27:55;50.38;;;28.10;;
45326;SDS011;31062;49.678;24.560;2023-03-23T17:30:50;53.67;;;30.50;;
45326;SDS011;31062;49.678;24.560;2023-03-23T17:33:37;65.72;;;35.13;;
45326;SDS011;31062;49.678;24.560;2023-03-23T17:36:23;57.28;;;27.02;;
45326;SDS011;31062;49.678;24.560;2023-03-23T17:39:09;46.53;;;23.33;;
45326;SDS011;31062;49.678;24.560;2023-03-23T17:41:54;34.95;;;16.70;;
45326;SDS011;31062;49.678;24.560;2023-03-23T17:44:40;41.65;;;20.88;;
45326;SDS011;31062;49.678;24.560;2023-03-23T17:47:26;44.58;;;23.52;;
45326;SDS011;31062;49.678;24.560;2023-03-23T17:50:12;51.58;;;23.63;;
45326;SDS011;31062;49.678;24.560;2023-03-23T17:52:58;37.42;;;19.42;;
45326;SDS011;31062;49.678;24.560;2023-03-23T17:55:45;48.13;;;18.90;;
45326;SDS011;31062;49.678;24.560;2023-03-23T17:58:31;25.67;;;13.25;;
45326;SDS011;31062;49.678;24.560;2023-03-23T18:01:17;26.27;;;12.60;;
45326;SDS011;31062;49.678;24.560;2023-03-23T18:04:02;21.40;;;11.73;;
45326;SDS011;31062;49.678;24.560;2023-03-23T18:06:48;24.50;;;11.48;;
45326;SDS011;31062;49.678;24.560;2023-03-23T18:09:34;27.38;;;12.65;;
45326;SDS011;31062;49.678;24.560;2023-03-23T18:12:20;31.13;;;13.77;;
45326;SDS011;31062;49.678;24.560;2023-03-23T18:15:05;21.85;;;11.10;;
45326;SDS011;31062;49.678;24.560;2023-03-23T18:17:51;17.35;;;9.95;;
45326;SDS011;31062;49.678;24.560;2023-03-23T18:20:37;17.48;;;10.40;;
45326;SDS011;31062;49.678;24.560;2023-03-23T18:23:22;14.00;;;7.63;;
45326;SDS011;31062;49.678;24.560;2023-03-23T18:26:10;12.50;;;6.38;;
45326;SDS011;31062;49.678;24.560;2023-03-23T18:28:57;6.88;;;5.50;;
45326;SDS011;31062;49.678;24.560;2023-03-23T18:31:43;10.48;;;5.45;;
45326;SDS011;31062;49.678;24.560;2023-03-23T18:34:28;9.57;;;4.40;;
45326;SDS011;31062;49.678;24.560;2023-03-23T18:37:16;12.88;;;5.07;;
45326;SDS011;31062;49.678;24.560;2023-03-23T18:40:01;7.85;;;4.93;;
45326;SDS011;31062;49.678;24.560;2023-03-23T18:42:49;8.00;;;4.47;;
45326;SDS011;31062;49.678;24.560;2023-03-23T18:45:35;8.38;;;4.72;;
45326;SDS011;31062;49.678;24.560;2023-03-23T18:48:22;7.10;;;5.18;;